Airfield :
LOGIN :

Register | Disclaimer

   EN    FR    IT 

 










Legend :    VFR   Marginal VFR   IFR   Intensive IFR   Very Intensive IFR
Visi :
Ceiling :
>= 8 km
>= 3000ft
5 to 8 km
1000 to 3000 ft
1500m to 5 km
500 to 1000 ft
800 to 1500m
200 to 500 ft
< 800m
< 200 ft
Symbols :   Thunderstorms  Fog  Heavy snow  Heavy precipitations  Wind > 20 kt
SIGMETs :     Misc.  Thunderstorms  Icing  Turbulence  Mountain Waves  Volcanic Ashes






- Airport Elevation : 13 ft
- IATA code : SNR


LFRZ - St-Nazaire

CURRENT METAR :
  • 021300Z AUTO 28005KT 260V320 CAVOK 08/05 Q1020 NOSIG

EXPIRED METARs :
  • 021230Z AUTO 29006KT CAVOK 08/05 Q1020 NOSIG
  • 021200Z AUTO 29005KT CAVOK 08/05 Q1021 NOSIG
  • 021130Z AUTO 29004KT 260V320 CAVOK 08/05 Q1021 NOSIG
  • 021100Z AUTO 30004KT 260V330 CAVOK 07/05 Q1022 NOSIG
  • 021030Z AUTO 33004KT CAVOK 07/04 Q1022 NOSIG
  • 021000Z AUTO 33004KT 300V360 CAVOK 06/04 Q1022 NOSIG

TAF TAF LFRZ
Valid from the 02 at 12:00 until the 03 at 12:00 UTC


021100Z 0212/0312 30005KT CAVOK
FM021700 24004KT 9999 BKN020
TEMPO 0218/0301 4000 -RA BKN014
PROB40
TEMPO 0301/0304 3000 BR
BECMG 0304/0306 4500 -RA
FM030800 24015G25KT 4500 -RA BKN040
TEMPO 0309/0312 24020G35KT 2500 RA BKN012 BKN030



MET'MAP, your aeronautical weather chart ! - Copyright ORBIFLY December 2007 - Disclaimer

ORBIFLY MET'MAP TEAM :

Programming & Development : Alexandra Zaïnal
Concept & original design : Baudouin d'Aumeries
Assistance for programming : Marc-Olivier Méhu
Technical & hardware support : Manuel Goepfert

Contact : metmap@orbifly.com




SOURCES & CREDITS :

   NOAA